This is the latest recevied weather packets stored in our database for station/object AJ5AG. If no packets are shown the sender has not sent any weather packets the latest 10 day(s).
| Time | Temp. | Humidity | Pressure | Rain* | Wind** | Luminosity | Snow |
|---|---|---|---|---|---|---|---|
| 1777930072 | 27.22° C | 54% | 1013.7 hPa | 0 mm | - | 128 W/m² | - |
| 1777929768 | 27.78° C | 54% | 1014.1 hPa | 0 mm | - | 104 W/m² | - |
| 1777929466 | 27.78° C | 54% | 1013.8 hPa | 0 mm | - | 89 W/m² | - |
| 1777929162 | 27.78° C | 53% | 1013.9 hPa | 0 mm | - | 93 W/m² | - |
| 1777928860 | 27.78° C | 53% | 1014 hPa | 0 mm | - | 97 W/m² | - |
| 1777928557 | 27.78° C | 53% | 1014.4 hPa | 0 mm | - | 148 W/m² | - |
| 1777928253 | 27.78° C | 53% | 1014.4 hPa | 0 mm | - | 171 W/m² | - |
| 1777927951 | 27.78° C | 55% | 1014.4 hPa | 0 mm | - | 170 W/m² | - |
| 1777927649 | 27.78° C | 53% | 1014.5 hPa | 0 mm | - | 161 W/m² | - |
| 1777927347 | 27.22° C | 54% | 1014.5 hPa | 0 mm | - | 202 W/m² | - |
| 1777927047 | 27.22° C | 53% | 1014.7 hPa | 0 mm | - | 200 W/m² | - |
| 1777926743 | 27.78° C | 52% | 1014.5 hPa | 0 mm | - | 408 W/m² | - |
| 1777926443 | 27.78° C | 52% | 1015.1 hPa | 0 mm | - | 207 W/m² | - |
| 1777926141 | 27.78° C | 51% | 1014.9 hPa | 0 mm | - | 131 W/m² | - |
| 1777925838 | 28.33° C | 52% | 1015.1 hPa | 0 mm | - | 262 W/m² | - |
| 1777925535 | 27.78° C | 52% | 1015.4 hPa | 0 mm | - | 303 W/m² | - |
| 1777925233 | 27.78° C | 53% | 1015.5 hPa | 0 mm | - | 333 W/m² | - |
| 1777924928 | 27.78° C | 51% | 1015.5 hPa | 0 mm | - | 725 W/m² | - |
| 1777924625 | 27.78° C | 53% | 1015.6 hPa | 0 mm | - | 739 W/m² | - |
| 1777924321 | 27.78° C | 51% | 1015.6 hPa | 0 mm | - | 207 W/m² | - |
| 1777924018 | 27.78° C | 53% | 1015.7 hPa | 0 mm | - | 769 W/m² | - |
| 1777923714 | 27.22° C | 52% | 1015.7 hPa | 0 mm | - | 853 W/m² | - |
| 1777923410 | 26.67° C | 53% | 1015.7 hPa | 0 mm | - | 796 W/m² | - |
| 1777923108 | 27.78° C | 49% | 1015.8 hPa | 0 mm | - | 258 W/m² | - |
| 1777922806 | 27.78° C | 50% | 1015.9 hPa | 0 mm | - | 799 W/m² | - |
* Rain latest hour (hover to see other rain measurements)
** Current wind speed in m/s (hover to see current wind gust speed)